This is the latest recevied weather packets stored in our database for station/object AD7ZD. If no packets are shown the sender has not sent any weather packets the latest 10 day(s).
| Time | Temp. | Humidity | Pressure | Rain* | Wind** | Luminosity | Snow |
|---|---|---|---|---|---|---|---|
| 1777631602 | 5.56° C | 45% | 1015.1 hPa | 0 mm | - | 0 W/m² | - |
| 1777631299 | 5° C | 46% | 1015.1 hPa | 0 mm | - | 0 W/m² | - |
| 1777630996 | 5° C | 47% | 1015.2 hPa | 0 mm | - | 0 W/m² | - |
| 1777630691 | 5° C | 50% | 1015.1 hPa | 0 mm | - | 0 W/m² | - |
| 1777630389 | 5° C | 50% | 1015.1 hPa | 0 mm | - | 0 W/m² | - |
| 1777630086 | 5° C | 52% | 1015.1 hPa | 0 mm | - | 0 W/m² | - |
| 1777629783 | 5.56° C | 51% | 1015.1 hPa | 0 mm | - | 0 W/m² | - |
| 1777629480 | 5.56° C | 51% | 1015 hPa | 0 mm | - | 0 W/m² | - |
| 1777629176 | 5.56° C | 51% | 1015.1 hPa | 0 mm | - | 0 W/m² | - |
| 1777628872 | 5.56° C | 51% | 1015.1 hPa | 0 mm | - | 0 W/m² | - |
| 1777628569 | 6.11° C | 49% | 1015.2 hPa | 0 mm | - | 0 W/m² | - |
| 1777628265 | 6.11° C | 45% | 1014.7 hPa | 0 mm | - | 0 W/m² | - |
| 1777627960 | 6.67° C | 43% | 1014.9 hPa | 0 mm | - | 0 W/m² | - |
| 1777627655 | 6.67° C | 41% | 1014.9 hPa | 0 mm | - | 0 W/m² | - |
| 1777627354 | 6.67° C | 41% | 1014.9 hPa | 0 mm | - | 0 W/m² | - |
| 1777627052 | 6.67° C | 41% | 1015.1 hPa | 0 mm | - | 0 W/m² | - |
| 1777626747 | 8.33° C | 34% | 1014.9 hPa | 0 mm | - | 0 W/m² | - |
| 1777626444 | 8.33° C | 35% | 1015.1 hPa | 0 mm | - | 0 W/m² | - |
| 1777626143 | 8.89° C | 35% | 1015.3 hPa | 0 mm | - | 0 W/m² | - |
| 1777625843 | 8.33° C | 35% | 1015.2 hPa | 0 mm | - | 0 W/m² | - |
| 1777625539 | 8.89° C | 35% | 1015.1 hPa | 0 mm | - | 0 W/m² | - |
| 1777625235 | 8.33° C | 35% | 1015.1 hPa | 0 mm | - | 0 W/m² | - |
| 1777624931 | 7.78° C | 35% | 1015.3 hPa | 0 mm | - | 0 W/m² | - |
| 1777624628 | 8.89° C | 34% | 1015.2 hPa | 0 mm | - | 0 W/m² | - |
| 1777624322 | 8.89° C | 34% | 1015.2 hPa | 0 mm | - | 0 W/m² | - |
* Rain latest hour (hover to see other rain measurements)
** Current wind speed in m/s (hover to see current wind gust speed)